sensor_id;sensor_type;location;lat;lon;timestamp;P1;durP1;ratioP1;P2;durP2;ratioP2
48621;SDS011;34421;48.944;9.460;2023-05-15T00:02:17;4.00;;;1.90;;
48621;SDS011;34421;48.944;9.460;2023-05-15T00:04:42;2.88;;;1.50;;
48621;SDS011;34421;48.944;9.460;2023-05-15T00:07:07;3.83;;;1.90;;
48621;SDS011;34421;48.944;9.460;2023-05-15T00:09:34;2.65;;;1.52;;
48621;SDS011;34421;48.944;9.460;2023-05-15T00:11:59;3.05;;;1.60;;
48621;SDS011;34421;48.944;9.460;2023-05-15T00:14:24;2.97;;;1.88;;
48621;SDS011;34421;48.944;9.460;2023-05-15T00:16:50;4.07;;;1.92;;
48621;SDS011;34421;48.944;9.460;2023-05-15T00:19:15;4.20;;;2.15;;
48621;SDS011;34421;48.944;9.460;2023-05-15T00:21:41;3.92;;;2.03;;
48621;SDS011;34421;48.944;9.460;2023-05-15T00:24:06;3.60;;;2.03;;
48621;SDS011;34421;48.944;9.460;2023-05-15T00:26:31;3.75;;;1.90;;
48621;SDS011;34421;48.944;9.460;2023-05-15T00:28:57;3.80;;;1.98;;
48621;SDS011;34421;48.944;9.460;2023-05-15T00:31:22;4.30;;;2.05;;
48621;SDS011;34421;48.944;9.460;2023-05-15T00:33:47;3.58;;;1.83;;
48621;SDS011;34421;48.944;9.460;2023-05-15T00:36:12;4.22;;;1.98;;
48621;SDS011;34421;48.944;9.460;2023-05-15T00:38:38;5.00;;;1.90;;
48621;SDS011;34421;48.944;9.460;2023-05-15T00:41:03;3.60;;;1.92;;
48621;SDS011;34421;48.944;9.460;2023-05-15T00:43:30;3.58;;;1.77;;
48621;SDS011;34421;48.944;9.460;2023-05-15T00:45:58;3.58;;;1.83;;
48621;SDS011;34421;48.944;9.460;2023-05-15T00:48:24;3.65;;;1.70;;
48621;SDS011;34421;48.944;9.460;2023-05-15T00:50:51;4.03;;;1.92;;
48621;SDS011;34421;48.944;9.460;2023-05-15T00:53:17;5.13;;;2.05;;
48621;SDS011;34421;48.944;9.460;2023-05-15T00:55:45;2.97;;;1.65;;
48621;SDS011;34421;48.944;9.460;2023-05-15T00:58:12;3.53;;;1.83;;
48621;SDS011;34421;48.944;9.460;2023-05-15T01:00:44;3.55;;;1.80;;
48621;SDS011;34421;48.944;9.460;2023-05-15T01:03:11;4.28;;;1.73;;
48621;SDS011;34421;48.944;9.460;2023-05-15T01:05:36;3.90;;;1.77;;
48621;SDS011;34421;48.944;9.460;2023-05-15T01:11:06;5.57;;;2.15;;
48621;SDS011;34421;48.944;9.460;2023-05-15T01:13:32;3.85;;;1.80;;
48621;SDS011;34421;48.944;9.460;2023-05-15T01:15:58;3.67;;;1.98;;
48621;SDS011;34421;48.944;9.460;2023-05-15T01:18:23;3.10;;;1.83;;
48621;SDS011;34421;48.944;9.460;2023-05-15T01:28:53;3.53;;;1.85;;
48621;SDS011;34421;48.944;9.460;2023-05-15T01:31:36;3.53;;;1.80;;
48621;SDS011;34421;48.944;9.460;2023-05-15T01:34:06;3.40;;;1.67;;
48621;SDS011;34421;48.944;9.460;2023-05-15T01:36:44;3.72;;;2.08;;
48621;SDS011;34421;48.944;9.460;2023-05-15T01:39:12;3.50;;;1.73;;
48621;SDS011;34421;48.944;9.460;2023-05-15T01:41:50;4.07;;;2.25;;
48621;SDS011;34421;48.944;9.460;2023-05-15T01:44:31;3.83;;;2.13;;
48621;SDS011;34421;48.944;9.460;2023-05-15T01:47:02;4.38;;;2.28;;
48621;SDS011;34421;48.944;9.460;2023-05-15T01:49:30;3.72;;;2.15;;
48621;SDS011;34421;48.944;9.460;2023-05-15T01:52:01;3.53;;;1.70;;
48621;SDS011;34421;48.944;9.460;2023-05-15T01:54:38;3.47;;;1.60;;
48621;SDS011;34421;48.944;9.460;2023-05-15T01:57:05;3.45;;;2.00;;
48621;SDS011;34421;48.944;9.460;2023-05-15T01:59:33;3.40;;;2.00;;
48621;SDS011;34421;48.944;9.460;2023-05-15T02:02:00;4.40;;;1.90;;
48621;SDS011;34421;48.944;9.460;2023-05-15T02:04:28;3.00;;;1.60;;
48621;SDS011;34421;48.944;9.460;2023-05-15T02:06:54;4.15;;;1.90;;
48621;SDS011;34421;48.944;9.460;2023-05-15T02:09:20;4.43;;;2.10;;
48621;SDS011;34421;48.944;9.460;2023-05-15T02:11:47;2.95;;;1.63;;
48621;SDS011;34421;48.944;9.460;2023-05-15T02:14:15;3.55;;;1.88;;
48621;SDS011;34421;48.944;9.460;2023-05-15T02:16:41;3.58;;;1.67;;
48621;SDS011;34421;48.944;9.460;2023-05-15T02:19:06;3.40;;;1.73;;
48621;SDS011;34421;48.944;9.460;2023-05-15T02:21:32;3.58;;;1.63;;
48621;SDS011;34421;48.944;9.460;2023-05-15T02:23:58;4.00;;;2.03;;
48621;SDS011;34421;48.944;9.460;2023-05-15T02:29:27;2.55;;;1.58;;
48621;SDS011;34421;48.944;9.460;2023-05-15T02:32:26;4.38;;;1.98;;
48621;SDS011;34421;48.944;9.460;2023-05-15T02:35:02;4.00;;;2.10;;
48621;SDS011;34421;48.944;9.460;2023-05-15T02:37:51;2.42;;;1.23;;
48621;SDS011;34421;48.944;9.460;2023-05-15T02:40:19;3.03;;;1.70;;
48621;SDS011;34421;48.944;9.460;2023-05-15T02:42:47;3.05;;;1.60;;
48621;SDS011;34421;48.944;9.460;2023-05-15T02:45:13;5.80;;;2.22;;
48621;SDS011;34421;48.944;9.460;2023-05-15T02:47:40;3.22;;;1.80;;
48621;SDS011;34421;48.944;9.460;2023-05-15T02:50:06;3.33;;;1.75;;
48621;SDS011;34421;48.944;9.460;2023-05-15T02:52:32;3.45;;;1.70;;
48621;SDS011;34421;48.944;9.460;2023-05-15T02:54:59;3.30;;;2.00;;
48621;SDS011;34421;48.944;9.460;2023-05-15T02:57:24;2.80;;;1.48;;
48621;SDS011;34421;48.944;9.460;2023-05-15T02:59:51;3.70;;;1.92;;
48621;SDS011;34421;48.944;9.460;2023-05-15T03:02:17;2.78;;;1.60;;
48621;SDS011;34421;48.944;9.460;2023-05-15T03:04:42;3.25;;;1.65;;
48621;SDS011;34421;48.944;9.460;2023-05-15T03:07:07;3.95;;;1.60;;
48621;SDS011;34421;48.944;9.460;2023-05-15T03:09:33;3.63;;;2.30;;
48621;SDS011;34421;48.944;9.460;2023-05-15T03:11:58;3.85;;;1.65;;
48621;SDS011;34421;48.944;9.460;2023-05-15T03:14:23;4.53;;;2.40;;
48621;SDS011;34421;48.944;9.460;2023-05-15T03:16:49;4.15;;;2.38;;
48621;SDS011;34421;48.944;9.460;2023-05-15T03:19:14;3.78;;;1.90;;
48621;SDS011;34421;48.944;9.460;2023-05-15T03:21:39;3.55;;;1.90;;
48621;SDS011;34421;48.944;9.460;2023-05-15T03:24:05;4.10;;;1.95;;
48621;SDS011;34421;48.944;9.460;2023-05-15T03:26:30;4.18;;;2.05;;
48621;SDS011;34421;48.944;9.460;2023-05-15T03:28:56;3.65;;;1.88;;
48621;SDS011;34421;48.944;9.460;2023-05-15T03:31:22;3.45;;;1.92;;
48621;SDS011;34421;48.944;9.460;2023-05-15T03:33:47;4.07;;;2.00;;
48621;SDS011;34421;48.944;9.460;2023-05-15T03:36:13;4.50;;;2.10;;
48621;SDS011;34421;48.944;9.460;2023-05-15T03:38:39;3.85;;;2.38;;
48621;SDS011;34421;48.944;9.460;2023-05-15T03:41:05;3.97;;;2.13;;
48621;SDS011;34421;48.944;9.460;2023-05-15T03:43:30;4.07;;;2.17;;
48621;SDS011;34421;48.944;9.460;2023-05-15T03:45:55;3.25;;;1.80;;
48621;SDS011;34421;48.944;9.460;2023-05-15T03:48:21;3.63;;;1.52;;
48621;SDS011;34421;48.944;9.460;2023-05-15T03:50:46;3.78;;;1.80;;
48621;SDS011;34421;48.944;9.460;2023-05-15T03:53:11;2.88;;;1.75;;
48621;SDS011;34421;48.944;9.460;2023-05-15T03:55:36;3.38;;;1.60;;
48621;SDS011;34421;48.944;9.460;2023-05-15T03:58:02;3.72;;;2.00;;
48621;SDS011;34421;48.944;9.460;2023-05-15T04:00:27;4.22;;;2.05;;
48621;SDS011;34421;48.944;9.460;2023-05-15T04:02:53;3.90;;;1.98;;
48621;SDS011;34421;48.944;9.460;2023-05-15T04:05:18;3.38;;;1.73;;
48621;SDS011;34421;48.944;9.460;2023-05-15T04:07:45;3.47;;;1.80;;
48621;SDS011;34421;48.944;9.460;2023-05-15T04:10:11;2.72;;;1.60;;
48621;SDS011;34421;48.944;9.460;2023-05-15T04:12:36;3.65;;;2.10;;
48621;SDS011;34421;48.944;9.460;2023-05-15T04:15:20;3.63;;;1.90;;
48621;SDS011;34421;48.944;9.460;2023-05-15T04:17:47;3.83;;;1.98;;
48621;SDS011;34421;48.944;9.460;2023-05-15T04:20:15;3.33;;;1.67;;
48621;SDS011;34421;48.944;9.460;2023-05-15T04:22:41;2.70;;;1.67;;
48621;SDS011;34421;48.944;9.460;2023-05-15T04:25:08;4.18;;;1.95;;
48621;SDS011;34421;48.944;9.460;2023-05-15T04:27:34;4.68;;;2.00;;
48621;SDS011;34421;48.944;9.460;2023-05-15T04:30:00;3.28;;;1.70;;
48621;SDS011;34421;48.944;9.460;2023-05-15T04:32:27;3.20;;;1.45;;
48621;SDS011;34421;48.944;9.460;2023-05-15T04:34:52;2.75;;;1.48;;
48621;SDS011;34421;48.944;9.460;2023-05-15T04:37:18;3.78;;;2.17;;
48621;SDS011;34421;48.944;9.460;2023-05-15T04:39:43;5.18;;;2.78;;
48621;SDS011;34421;48.944;9.460;2023-05-15T04:42:08;3.85;;;2.33;;
48621;SDS011;34421;48.944;9.460;2023-05-15T04:44:34;3.72;;;1.95;;
48621;SDS011;34421;48.944;9.460;2023-05-15T04:46:59;4.20;;;2.35;;
48621;SDS011;34421;48.944;9.460;2023-05-15T04:49:25;3.90;;;2.28;;
48621;SDS011;34421;48.944;9.460;2023-05-15T04:51:50;4.10;;;2.40;;
48621;SDS011;34421;48.944;9.460;2023-05-15T04:54:15;2.88;;;1.90;;
48621;SDS011;34421;48.944;9.460;2023-05-15T04:56:41;4.80;;;2.22;;
48621;SDS011;34421;48.944;9.460;2023-05-15T04:59:06;4.57;;;2.60;;
48621;SDS011;34421;48.944;9.460;2023-05-15T05:01:31;3.67;;;2.00;;
48621;SDS011;34421;48.944;9.460;2023-05-15T05:03:57;2.85;;;1.70;;
48621;SDS011;34421;48.944;9.460;2023-05-15T05:06:22;4.57;;;1.65;;
48621;SDS011;34421;48.944;9.460;2023-05-15T05:08:48;3.33;;;1.45;;
48621;SDS011;34421;48.944;9.460;2023-05-15T05:11:13;4.03;;;1.85;;
48621;SDS011;34421;48.944;9.460;2023-05-15T05:13:38;2.70;;;1.60;;
48621;SDS011;34421;48.944;9.460;2023-05-15T05:16:04;4.05;;;1.88;;
48621;SDS011;34421;48.944;9.460;2023-05-15T05:18:29;3.75;;;1.80;;
48621;SDS011;34421;48.944;9.460;2023-05-15T05:21:01;2.92;;;1.58;;
48621;SDS011;34421;48.944;9.460;2023-05-15T05:23:27;3.50;;;1.42;;
48621;SDS011;34421;48.944;9.460;2023-05-15T05:25:53;3.63;;;1.80;;
48621;SDS011;34421;48.944;9.460;2023-05-15T05:28:19;2.95;;;1.63;;
48621;SDS011;34421;48.944;9.460;2023-05-15T05:30:44;3.33;;;1.63;;
48621;SDS011;34421;48.944;9.460;2023-05-15T05:33:10;3.70;;;1.60;;
48621;SDS011;34421;48.944;9.460;2023-05-15T05:35:35;2.50;;;1.20;;
48621;SDS011;34421;48.944;9.460;2023-05-15T05:38:01;4.22;;;1.67;;
48621;SDS011;34421;48.944;9.460;2023-05-15T05:40:26;3.33;;;1.90;;
48621;SDS011;34421;48.944;9.460;2023-05-15T05:42:51;3.20;;;1.52;;
48621;SDS011;34421;48.944;9.460;2023-05-15T05:45:17;2.90;;;1.55;;
48621;SDS011;34421;48.944;9.460;2023-05-15T05:47:42;3.53;;;1.52;;
48621;SDS011;34421;48.944;9.460;2023-05-15T05:50:07;4.15;;;2.20;;
48621;SDS011;34421;48.944;9.460;2023-05-15T05:52:33;4.38;;;2.47;;
48621;SDS011;34421;48.944;9.460;2023-05-15T05:54:58;3.97;;;2.08;;
48621;SDS011;34421;48.944;9.460;2023-05-15T05:57:23;3.85;;;1.85;;
48621;SDS011;34421;48.944;9.460;2023-05-15T05:59:49;3.50;;;1.65;;
48621;SDS011;34421;48.944;9.460;2023-05-15T06:02:14;3.15;;;1.65;;
48621;SDS011;34421;48.944;9.460;2023-05-15T06:04:40;3.83;;;2.00;;
48621;SDS011;34421;48.944;9.460;2023-05-15T06:07:05;2.92;;;1.55;;
48621;SDS011;34421;48.944;9.460;2023-05-15T06:09:31;2.80;;;1.55;;
48621;SDS011;34421;48.944;9.460;2023-05-15T06:11:56;3.22;;;1.90;;
48621;SDS011;34421;48.944;9.460;2023-05-15T06:14:22;4.07;;;2.08;;
48621;SDS011;34421;48.944;9.460;2023-05-15T06:16:47;4.05;;;2.13;;
48621;SDS011;34421;48.944;9.460;2023-05-15T06:19:12;4.35;;;2.10;;
48621;SDS011;34421;48.944;9.460;2023-05-15T06:21:38;3.10;;;1.75;;
48621;SDS011;34421;48.944;9.460;2023-05-15T06:24:03;3.13;;;1.65;;
48621;SDS011;34421;48.944;9.460;2023-05-15T06:26:28;2.38;;;1.60;;
48621;SDS011;34421;48.944;9.460;2023-05-15T06:28:54;3.92;;;1.90;;
48621;SDS011;34421;48.944;9.460;2023-05-15T06:31:19;3.78;;;2.00;;
48621;SDS011;34421;48.944;9.460;2023-05-15T06:33:45;4.15;;;2.20;;
48621;SDS011;34421;48.944;9.460;2023-05-15T06:36:10;3.20;;;1.98;;
48621;SDS011;34421;48.944;9.460;2023-05-15T06:38:36;2.60;;;1.30;;
48621;SDS011;34421;48.944;9.460;2023-05-15T06:41:01;2.90;;;1.60;;
48621;SDS011;34421;48.944;9.460;2023-05-15T06:43:26;3.42;;;1.70;;
48621;SDS011;34421;48.944;9.460;2023-05-15T06:45:52;2.47;;;1.35;;
48621;SDS011;34421;48.944;9.460;2023-05-15T06:48:17;2.65;;;1.40;;
48621;SDS011;34421;48.944;9.460;2023-05-15T06:50:42;2.45;;;1.60;;
48621;SDS011;34421;48.944;9.460;2023-05-15T06:53:08;2.60;;;1.50;;
48621;SDS011;34421;48.944;9.460;2023-05-15T06:55:33;3.10;;;1.65;;
48621;SDS011;34421;48.944;9.460;2023-05-15T06:58:00;2.63;;;1.58;;
48621;SDS011;34421;48.944;9.460;2023-05-15T07:00:25;2.55;;;1.55;;
48621;SDS011;34421;48.944;9.460;2023-05-15T07:02:51;2.47;;;1.58;;
48621;SDS011;34421;48.944;9.460;2023-05-15T07:05:16;2.65;;;1.48;;
48621;SDS011;34421;48.944;9.460;2023-05-15T07:07:41;2.00;;;1.30;;
48621;SDS011;34421;48.944;9.460;2023-05-15T07:10:07;2.42;;;1.42;;
48621;SDS011;34421;48.944;9.460;2023-05-15T07:12:33;2.25;;;1.40;;
48621;SDS011;34421;48.944;9.460;2023-05-15T07:15:01;1.98;;;1.45;;
48621;SDS011;34421;48.944;9.460;2023-05-15T07:17:26;2.35;;;1.30;;
48621;SDS011;34421;48.944;9.460;2023-05-15T07:19:51;3.05;;;1.30;;
48621;SDS011;34421;48.944;9.460;2023-05-15T07:22:17;2.55;;;1.27;;
48621;SDS011;34421;48.944;9.460;2023-05-15T07:24:42;2.35;;;1.42;;
48621;SDS011;34421;48.944;9.460;2023-05-15T07:27:07;1.47;;;1.10;;
48621;SDS011;34421;48.944;9.460;2023-05-15T07:29:33;2.05;;;1.20;;
48621;SDS011;34421;48.944;9.460;2023-05-15T07:31:58;3.10;;;1.33;;
48621;SDS011;34421;48.944;9.460;2023-05-15T07:34:23;2.33;;;1.30;;
48621;SDS011;34421;48.944;9.460;2023-05-15T07:36:48;2.27;;;1.10;;
48621;SDS011;34421;48.944;9.460;2023-05-15T07:39:14;2.28;;;1.27;;
48621;SDS011;34421;48.944;9.460;2023-05-15T07:41:39;2.03;;;1.27;;
48621;SDS011;34421;48.944;9.460;2023-05-15T07:44:05;2.35;;;1.45;;
48621;SDS011;34421;48.944;9.460;2023-05-15T07:46:30;2.38;;;1.42;;
48621;SDS011;34421;48.944;9.460;2023-05-15T07:48:55;2.33;;;1.20;;
48621;SDS011;34421;48.944;9.460;2023-05-15T07:51:21;2.47;;;1.20;;
48621;SDS011;34421;48.944;9.460;2023-05-15T07:53:46;2.00;;;1.17;;
48621;SDS011;34421;48.944;9.460;2023-05-15T07:56:11;2.60;;;1.20;;
48621;SDS011;34421;48.944;9.460;2023-05-15T07:58:37;1.50;;;1.10;;
48621;SDS011;34421;48.944;9.460;2023-05-15T08:01:02;2.27;;;1.20;;
48621;SDS011;34421;48.944;9.460;2023-05-15T08:03:28;4.30;;;1.27;;
48621;SDS011;34421;48.944;9.460;2023-05-15T08:05:53;2.17;;;1.23;;
48621;SDS011;34421;48.944;9.460;2023-05-15T08:08:19;5.53;;;1.20;;
48621;SDS011;34421;48.944;9.460;2023-05-15T08:10:44;1.83;;;1.10;;
48621;SDS011;34421;48.944;9.460;2023-05-15T08:13:09;2.08;;;1.25;;
48621;SDS011;34421;48.944;9.460;2023-05-15T08:15:35;1.80;;;1.15;;
48621;SDS011;34421;48.944;9.460;2023-05-15T08:18:00;1.60;;;1.00;;
48621;SDS011;34421;48.944;9.460;2023-05-15T08:20:25;1.27;;;0.80;;
48621;SDS011;34421;48.944;9.460;2023-05-15T08:22:51;1.45;;;0.90;;
48621;SDS011;34421;48.944;9.460;2023-05-15T08:25:16;1.50;;;0.97;;
48621;SDS011;34421;48.944;9.460;2023-05-15T08:27:41;1.08;;;0.60;;
48621;SDS011;34421;48.944;9.460;2023-05-15T08:30:07;1.42;;;0.70;;
48621;SDS011;34421;48.944;9.460;2023-05-15T08:32:33;2.08;;;1.02;;
48621;SDS011;34421;48.944;9.460;2023-05-15T08:34:58;1.65;;;0.90;;
48621;SDS011;34421;48.944;9.460;2023-05-15T08:37:23;1.47;;;0.87;;
48621;SDS011;34421;48.944;9.460;2023-05-15T08:39:49;2.65;;;1.25;;
48621;SDS011;34421;48.944;9.460;2023-05-15T08:42:21;2.95;;;0.80;;
48621;SDS011;34421;48.944;9.460;2023-05-15T08:44:52;1.38;;;0.75;;
48621;SDS011;34421;48.944;9.460;2023-05-15T08:47:19;1.50;;;0.80;;
48621;SDS011;34421;48.944;9.460;2023-05-15T08:52:29;1.63;;;0.88;;
48621;SDS011;34421;48.944;9.460;2023-05-15T08:54:56;1.13;;;0.70;;
48621;SDS011;34421;48.944;9.460;2023-05-15T08:57:22;1.65;;;0.98;;
48621;SDS011;34421;48.944;9.460;2023-05-15T08:59:48;1.20;;;0.90;;
48621;SDS011;34421;48.944;9.460;2023-05-15T09:02:15;1.42;;;0.80;;
48621;SDS011;34421;48.944;9.460;2023-05-15T09:04:42;1.42;;;1.02;;
48621;SDS011;34421;48.944;9.460;2023-05-15T09:07:08;1.42;;;0.80;;
48621;SDS011;34421;48.944;9.460;2023-05-15T09:09:34;2.05;;;0.93;;
48621;SDS011;34421;48.944;9.460;2023-05-15T09:12:02;1.13;;;0.68;;
48621;SDS011;34421;48.944;9.460;2023-05-15T09:14:28;1.05;;;0.70;;
48621;SDS011;34421;48.944;9.460;2023-05-15T09:16:53;1.58;;;0.80;;
48621;SDS011;34421;48.944;9.460;2023-05-15T09:19:19;1.33;;;0.82;;
48621;SDS011;34421;48.944;9.460;2023-05-15T09:21:46;1.38;;;0.93;;
48621;SDS011;34421;48.944;9.460;2023-05-15T09:27:03;1.90;;;0.90;;
48621;SDS011;34421;48.944;9.460;2023-05-15T09:29:31;1.10;;;0.70;;
48621;SDS011;34421;48.944;9.460;2023-05-15T09:34:30;1.20;;;0.90;;
48621;SDS011;34421;48.944;9.460;2023-05-15T09:36:57;1.95;;;0.88;;
48621;SDS011;34421;48.944;9.460;2023-05-15T09:39:22;2.30;;;1.00;;
48621;SDS011;34421;48.944;9.460;2023-05-15T09:41:48;2.80;;;1.10;;
48621;SDS011;34421;48.944;9.460;2023-05-15T09:44:17;1.48;;;0.82;;
48621;SDS011;34421;48.944;9.460;2023-05-15T09:46:43;1.75;;;0.88;;
48621;SDS011;34421;48.944;9.460;2023-05-15T09:49:09;1.55;;;0.88;;
48621;SDS011;34421;48.944;9.460;2023-05-15T09:51:35;1.70;;;1.10;;
48621;SDS011;34421;48.944;9.460;2023-05-15T09:54:00;1.50;;;0.88;;
48621;SDS011;34421;48.944;9.460;2023-05-15T09:56:26;1.73;;;0.80;;
48621;SDS011;34421;48.944;9.460;2023-05-15T09:58:55;1.58;;;1.02;;
48621;SDS011;34421;48.944;9.460;2023-05-15T10:01:22;2.47;;;1.20;;
48621;SDS011;34421;48.944;9.460;2023-05-15T10:03:55;1.20;;;0.80;;
48621;SDS011;34421;48.944;9.460;2023-05-15T10:06:21;0.88;;;0.80;;
48621;SDS011;34421;48.944;9.460;2023-05-15T10:08:53;1.60;;;1.00;;
48621;SDS011;34421;48.944;9.460;2023-05-15T10:11:19;1.95;;;0.95;;
48621;SDS011;34421;48.944;9.460;2023-05-15T10:13:46;1.33;;;0.90;;
48621;SDS011;34421;48.944;9.460;2023-05-15T10:16:12;1.52;;;0.85;;
48621;SDS011;34421;48.944;9.460;2023-05-15T10:18:39;1.60;;;0.80;;
48621;SDS011;34421;48.944;9.460;2023-05-15T10:21:05;2.40;;;1.00;;
48621;SDS011;34421;48.944;9.460;2023-05-15T10:23:33;1.55;;;0.80;;
48621;SDS011;34421;48.944;9.460;2023-05-15T10:26:01;2.05;;;1.20;;
48621;SDS011;34421;48.944;9.460;2023-05-15T10:28:30;2.10;;;1.13;;
48621;SDS011;34421;48.944;9.460;2023-05-15T10:31:00;1.63;;;0.90;;
48621;SDS011;34421;48.944;9.460;2023-05-15T10:33:27;1.75;;;0.95;;
48621;SDS011;34421;48.944;9.460;2023-05-15T10:35:54;1.92;;;0.90;;
48621;SDS011;34421;48.944;9.460;2023-05-15T10:38:20;1.83;;;1.10;;
48621;SDS011;34421;48.944;9.460;2023-05-15T10:40:46;2.03;;;0.93;;
48621;SDS011;34421;48.944;9.460;2023-05-15T10:43:12;2.25;;;0.95;;
48621;SDS011;34421;48.944;9.460;2023-05-15T10:45:38;1.55;;;1.00;;
48621;SDS011;34421;48.944;9.460;2023-05-15T10:48:04;1.92;;;1.00;;
48621;SDS011;34421;48.944;9.460;2023-05-15T10:50:32;1.27;;;0.90;;
48621;SDS011;34421;48.944;9.460;2023-05-15T10:52:57;2.45;;;1.25;;
48621;SDS011;34421;48.944;9.460;2023-05-15T10:55:24;2.10;;;1.38;;
48621;SDS011;34421;48.944;9.460;2023-05-15T10:57:49;1.73;;;0.98;;
48621;SDS011;34421;48.944;9.460;2023-05-15T11:02:47;1.42;;;0.90;;
48621;SDS011;34421;48.944;9.460;2023-05-15T11:05:12;1.35;;;0.80;;
48621;SDS011;34421;48.944;9.460;2023-05-15T11:07:38;1.88;;;1.15;;
48621;SDS011;34421;48.944;9.460;2023-05-15T11:12:58;1.10;;;0.75;;
48621;SDS011;34421;48.944;9.460;2023-05-15T11:15:26;1.13;;;0.55;;
48621;SDS011;34421;48.944;9.460;2023-05-15T11:18:04;1.00;;;0.60;;
48621;SDS011;34421;48.944;9.460;2023-05-15T11:20:31;1.40;;;0.50;;
48621;SDS011;34421;48.944;9.460;2023-05-15T11:23:20;1.70;;;0.52;;
48621;SDS011;34421;48.944;9.460;2023-05-15T11:25:50;1.17;;;0.60;;
48621;SDS011;34421;48.944;9.460;2023-05-15T11:28:20;1.77;;;0.93;;
48621;SDS011;34421;48.944;9.460;2023-05-15T11:30:49;1.17;;;0.70;;
48621;SDS011;34421;48.944;9.460;2023-05-15T11:33:16;0.77;;;0.50;;
48621;SDS011;34421;48.944;9.460;2023-05-15T11:35:42;0.60;;;0.40;;
48621;SDS011;34421;48.944;9.460;2023-05-15T11:40:43;1.05;;;0.60;;
48621;SDS011;34421;48.944;9.460;2023-05-15T11:43:17;0.93;;;0.60;;
48621;SDS011;34421;48.944;9.460;2023-05-15T11:45:53;1.13;;;0.68;;
48621;SDS011;34421;48.944;9.460;2023-05-15T11:48:31;1.23;;;0.60;;
48621;SDS011;34421;48.944;9.460;2023-05-15T11:51:00;1.38;;;0.60;;
48621;SDS011;34421;48.944;9.460;2023-05-15T11:53:26;1.05;;;0.70;;
48621;SDS011;34421;48.944;9.460;2023-05-15T11:55:53;0.95;;;0.60;;
48621;SDS011;34421;48.944;9.460;2023-05-15T11:58:21;2.28;;;0.82;;
48621;SDS011;34421;48.944;9.460;2023-05-15T12:00:49;1.40;;;1.00;;
48621;SDS011;34421;48.944;9.460;2023-05-15T12:03:25;0.73;;;0.50;;
48621;SDS011;34421;48.944;9.460;2023-05-15T12:05:56;1.30;;;0.70;;
48621;SDS011;34421;48.944;9.460;2023-05-15T12:08:21;1.25;;;0.70;;
48621;SDS011;34421;48.944;9.460;2023-05-15T12:10:47;1.85;;;0.82;;
48621;SDS011;34421;48.944;9.460;2023-05-15T12:13:13;3.45;;;0.80;;
48621;SDS011;34421;48.944;9.460;2023-05-15T12:15:41;2.22;;;0.73;;
48621;SDS011;34421;48.944;9.460;2023-05-15T12:18:08;2.30;;;0.98;;
48621;SDS011;34421;48.944;9.460;2023-05-15T12:20:34;2.92;;;1.00;;
48621;SDS011;34421;48.944;9.460;2023-05-15T12:23:05;2.80;;;0.82;;
48621;SDS011;34421;48.944;9.460;2023-05-15T12:25:32;2.05;;;0.80;;
48621;SDS011;34421;48.944;9.460;2023-05-15T12:28:00;3.53;;;1.23;;
48621;SDS011;34421;48.944;9.460;2023-05-15T12:30:26;2.53;;;1.33;;
48621;SDS011;34421;48.944;9.460;2023-05-15T12:32:55;1.25;;;0.70;;
48621;SDS011;34421;48.944;9.460;2023-05-15T12:35:26;0.98;;;0.50;;
48621;SDS011;34421;48.944;9.460;2023-05-15T12:37:51;1.63;;;0.80;;
48621;SDS011;34421;48.944;9.460;2023-05-15T12:40:19;1.58;;;0.73;;
48621;SDS011;34421;48.944;9.460;2023-05-15T12:42:45;1.40;;;0.60;;
48621;SDS011;34421;48.944;9.460;2023-05-15T12:45:17;0.77;;;0.32;;
48621;SDS011;34421;48.944;9.460;2023-05-15T12:47:44;0.63;;;0.43;;
48621;SDS011;34421;48.944;9.460;2023-05-15T12:50:12;0.65;;;0.40;;
48621;SDS011;34421;48.944;9.460;2023-05-15T12:52:50;0.85;;;0.47;;
48621;SDS011;34421;48.944;9.460;2023-05-15T12:55:24;1.05;;;0.45;;
48621;SDS011;34421;48.944;9.460;2023-05-15T12:57:51;1.00;;;0.45;;
48621;SDS011;34421;48.944;9.460;2023-05-15T13:00:17;1.05;;;0.50;;
48621;SDS011;34421;48.944;9.460;2023-05-15T13:02:45;0.98;;;0.50;;
48621;SDS011;34421;48.944;9.460;2023-05-15T13:05:13;0.45;;;0.30;;
48621;SDS011;34421;48.944;9.460;2023-05-15T13:07:42;1.00;;;0.50;;
48621;SDS011;34421;48.944;9.460;2023-05-15T13:10:11;1.08;;;0.50;;
48621;SDS011;34421;48.944;9.460;2023-05-15T13:12:37;0.70;;;0.50;;
48621;SDS011;34421;48.944;9.460;2023-05-15T13:15:04;1.13;;;0.55;;
48621;SDS011;34421;48.944;9.460;2023-05-15T13:17:31;0.77;;;0.50;;
48621;SDS011;34421;48.944;9.460;2023-05-15T13:19:58;3.85;;;0.80;;
48621;SDS011;34421;48.944;9.460;2023-05-15T13:22:24;1.20;;;0.60;;
48621;SDS011;34421;48.944;9.460;2023-05-15T13:24:50;2.17;;;0.93;;
48621;SDS011;34421;48.944;9.460;2023-05-15T13:27:15;1.73;;;0.82;;
48621;SDS011;34421;48.944;9.460;2023-05-15T13:29:41;2.58;;;0.80;;
48621;SDS011;34421;48.944;9.460;2023-05-15T13:32:06;1.25;;;0.63;;
48621;SDS011;34421;48.944;9.460;2023-05-15T13:34:31;1.48;;;0.90;;
48621;SDS011;34421;48.944;9.460;2023-05-15T13:36:57;2.15;;;0.90;;
48621;SDS011;34421;48.944;9.460;2023-05-15T13:39:22;1.52;;;1.00;;
48621;SDS011;34421;48.944;9.460;2023-05-15T13:41:47;2.80;;;1.23;;
48621;SDS011;34421;48.944;9.460;2023-05-15T13:44:12;1.88;;;1.05;;
48621;SDS011;34421;48.944;9.460;2023-05-15T13:46:39;1.60;;;1.08;;
48621;SDS011;34421;48.944;9.460;2023-05-15T13:49:04;1.85;;;1.20;;
48621;SDS011;34421;48.944;9.460;2023-05-15T13:51:29;4.22;;;1.48;;
48621;SDS011;34421;48.944;9.460;2023-05-15T13:53:55;6.13;;;1.75;;
48621;SDS011;34421;48.944;9.460;2023-05-15T13:56:20;2.80;;;1.13;;
48621;SDS011;34421;48.944;9.460;2023-05-15T13:58:46;2.13;;;1.33;;
48621;SDS011;34421;48.944;9.460;2023-05-15T14:01:11;1.85;;;1.10;;
48621;SDS011;34421;48.944;9.460;2023-05-15T14:03:37;2.25;;;1.23;;
48621;SDS011;34421;48.944;9.460;2023-05-15T14:06:02;2.65;;;1.13;;
48621;SDS011;34421;48.944;9.460;2023-05-15T14:08:27;1.48;;;0.80;;
48621;SDS011;34421;48.944;9.460;2023-05-15T14:10:53;2.53;;;0.90;;
48621;SDS011;34421;48.944;9.460;2023-05-15T14:13:18;2.05;;;0.93;;
48621;SDS011;34421;48.944;9.460;2023-05-15T14:15:43;1.50;;;0.80;;
48621;SDS011;34421;48.944;9.460;2023-05-15T14:18:09;1.30;;;0.80;;
48621;SDS011;34421;48.944;9.460;2023-05-15T14:20:34;1.25;;;0.73;;
48621;SDS011;34421;48.944;9.460;2023-05-15T14:22:59;1.40;;;0.88;;
48621;SDS011;34421;48.944;9.460;2023-05-15T14:25:28;1.75;;;0.90;;
48621;SDS011;34421;48.944;9.460;2023-05-15T14:27:53;2.05;;;0.85;;
48621;SDS011;34421;48.944;9.460;2023-05-15T14:30:20;1.10;;;0.60;;
48621;SDS011;34421;48.944;9.460;2023-05-15T14:32:45;1.27;;;0.77;;
48621;SDS011;34421;48.944;9.460;2023-05-15T14:35:11;1.42;;;0.80;;
48621;SDS011;34421;48.944;9.460;2023-05-15T14:37:36;1.33;;;0.70;;
48621;SDS011;34421;48.944;9.460;2023-05-15T14:40:02;1.40;;;0.70;;
48621;SDS011;34421;48.944;9.460;2023-05-15T14:42:28;1.90;;;0.85;;
48621;SDS011;34421;48.944;9.460;2023-05-15T14:44:54;1.92;;;1.10;;
48621;SDS011;34421;48.944;9.460;2023-05-15T14:47:19;2.00;;;0.98;;
48621;SDS011;34421;48.944;9.460;2023-05-15T14:49:44;2.35;;;1.08;;
48621;SDS011;34421;48.944;9.460;2023-05-15T14:52:10;1.52;;;0.80;;
48621;SDS011;34421;48.944;9.460;2023-05-15T14:54:36;2.50;;;1.40;;
48621;SDS011;34421;48.944;9.460;2023-05-15T14:57:02;3.97;;;1.20;;
48621;SDS011;34421;48.944;9.460;2023-05-15T14:59:28;2.58;;;1.13;;
48621;SDS011;34421;48.944;9.460;2023-05-15T15:01:53;2.45;;;1.40;;
48621;SDS011;34421;48.944;9.460;2023-05-15T15:04:19;2.70;;;1.15;;
48621;SDS011;34421;48.944;9.460;2023-05-15T15:06:45;1.58;;;1.08;;
48621;SDS011;34421;48.944;9.460;2023-05-15T15:09:11;2.15;;;0.93;;
48621;SDS011;34421;48.944;9.460;2023-05-15T15:11:36;1.58;;;1.00;;
48621;SDS011;34421;48.944;9.460;2023-05-15T15:14:02;2.28;;;1.30;;
48621;SDS011;34421;48.944;9.460;2023-05-15T15:16:27;2.20;;;1.10;;